createdAt,value
2022-10-19T00:00:50.329Z,45.57
2022-10-19T00:03:37.036Z,45.64
2022-10-19T00:06:25.989Z,45.46
2022-10-19T00:09:17.551Z,45.58
2022-10-19T00:12:03.925Z,45.67
2022-10-19T00:14:50.127Z,45.53
2022-10-19T00:17:36.344Z,45.73
2022-10-19T00:20:22.258Z,45.81
2022-10-19T00:23:08.070Z,45.83
2022-10-19T00:25:57.848Z,46.01
2022-10-19T00:28:44.574Z,46.02
2022-10-19T00:31:30.480Z,45.92
2022-10-19T00:34:16.792Z,46.06
2022-10-19T00:37:02.990Z,46.03
2022-10-19T00:39:48.954Z,45.98
2022-10-19T00:42:35.242Z,46.22
2022-10-19T00:45:21.636Z,46.05
2022-10-19T00:48:08.228Z,46.42
2022-10-19T00:50:56.328Z,46.11
2022-10-19T00:53:42.611Z,46.41
2022-10-19T00:56:28.694Z,46.23
2022-10-19T00:59:16.358Z,46.33
2022-10-19T01:02:04.637Z,46.53
2022-10-19T01:04:52.009Z,46.30
2022-10-19T01:07:38.016Z,46.17
2022-10-19T01:10:35.501Z,46.91
2022-10-19T01:13:46.436Z,46.65
2022-10-19T01:16:42.838Z,46.62
2022-10-19T01:19:40.141Z,46.50
2022-10-19T01:22:35.268Z,46.44
2022-10-19T01:25:52.141Z,46.84
2022-10-19T01:28:50.527Z,46.78
2022-10-19T01:32:00.569Z,47.09
2022-10-19T01:35:10.886Z,47.19
2022-10-19T01:38:08.444Z,47.42
2022-10-19T01:41:23.792Z,47.10
2022-10-19T01:44:29.669Z,47.05
2022-10-19T01:47:20.578Z,47.37
2022-10-19T01:50:20.176Z,47.02
2022-10-19T01:53:08.283Z,46.96
2022-10-19T01:55:56.000Z,46.94
2022-10-19T01:58:44.104Z,47.17
2022-10-19T02:01:31.358Z,46.94
2022-10-19T02:04:19.395Z,47.52
2022-10-19T02:07:06.209Z,47.24
2022-10-19T02:09:52.309Z,47.27
2022-10-19T02:12:38.501Z,46.96
2022-10-19T02:15:27.002Z,47.49
2022-10-19T02:18:15.006Z,47.46
2022-10-19T02:21:03.902Z,47.17
2022-10-19T02:23:51.898Z,47.28
2022-10-19T02:26:40.733Z,47.54
2022-10-19T02:29:27.367Z,47.60
2022-10-19T02:32:14.685Z,47.41
2022-10-19T02:35:01.168Z,47.71
2022-10-19T02:37:47.525Z,47.39
2022-10-19T02:40:37.482Z,47.46
2022-10-19T02:43:24.712Z,47.19
2022-10-19T02:46:44.327Z,47.98
2022-10-19T02:49:30.903Z,47.42
2022-10-19T02:52:16.619Z,47.37
2022-10-19T02:55:02.676Z,48.07
2022-10-19T02:57:48.392Z,47.62
2022-10-19T03:00:34.448Z,47.66
2022-10-19T03:03:20.225Z,47.79
2022-10-19T03:06:06.114Z,47.80
2022-10-19T03:08:52.149Z,47.84
2022-10-19T03:11:37.970Z,47.86
2022-10-19T03:14:24.083Z,48.10
2022-10-19T03:17:10.667Z,48.21
2022-10-19T03:19:56.590Z,47.72
2022-10-19T03:22:42.884Z,48.03
2022-10-19T03:25:28.850Z,47.98
2022-10-19T03:28:15.130Z,48.23
2022-10-19T03:31:01.163Z,48.22
2022-10-19T03:33:47.087Z,48.34
2022-10-19T03:36:35.234Z,48.33
2022-10-19T03:39:21.414Z,48.00
2022-10-19T03:42:07.137Z,48.26
2022-10-19T03:44:53.028Z,48.11
2022-10-19T03:47:38.882Z,48.35
2022-10-19T03:50:24.769Z,48.37
2022-10-19T03:53:10.754Z,48.42
2022-10-19T03:56:02.069Z,48.29
2022-10-19T03:58:49.181Z,48.31
2022-10-19T04:01:40.807Z,48.29
2022-10-19T04:04:26.732Z,48.06
2022-10-19T04:07:12.691Z,48.51
2022-10-19T04:09:58.479Z,48.05
2022-10-19T04:12:44.634Z,48.62
2022-10-19T04:15:30.916Z,48.27
2022-10-19T04:18:16.766Z,48.21
2022-10-19T04:21:05.127Z,48.38
2022-10-19T04:23:52.849Z,48.18
2022-10-19T04:26:43.581Z,48.32
2022-10-19T04:29:30.196Z,48.41
2022-10-19T04:32:17.035Z,48.71
2022-10-19T04:35:03.203Z,48.60
2022-10-19T04:37:49.217Z,48.62
2022-10-19T04:40:36.884Z,48.81
2022-10-19T04:43:23.109Z,48.49
2022-10-19T04:46:11.435Z,48.55
2022-10-19T04:48:58.060Z,48.77
2022-10-19T04:51:44.237Z,48.43
2022-10-19T04:54:30.141Z,48.73
2022-10-19T04:57:16.079Z,48.31
2022-10-19T05:00:02.694Z,48.73
2022-10-19T05:02:48.749Z,48.60
2022-10-19T05:05:35.159Z,48.89
2022-10-19T05:08:21.218Z,49.01
2022-10-19T05:11:09.869Z,48.90
2022-10-19T05:13:56.953Z,48.56
2022-10-19T05:16:43.002Z,48.97
2022-10-19T05:19:28.900Z,48.94
2022-10-19T05:22:14.889Z,48.92
2022-10-19T05:25:00.780Z,48.78
2022-10-19T05:27:51.117Z,49.47
2022-10-19T05:30:38.903Z,49.28
2022-10-19T05:33:25.056Z,49.03
2022-10-19T05:36:20.086Z,49.47
2022-10-19T05:39:13.397Z,49.11
2022-10-19T05:41:59.545Z,49.13
2022-10-19T05:44:45.386Z,49.28
2022-10-19T05:47:31.959Z,49.67
2022-10-19T05:50:18.343Z,49.56
2022-10-19T05:53:04.537Z,49.84
2022-10-19T05:55:50.435Z,49.46
2022-10-19T05:58:36.445Z,49.37
2022-10-19T06:01:22.633Z,49.74
2022-10-19T06:04:08.900Z,49.85
2022-10-19T06:06:54.744Z,49.73
2022-10-19T06:09:40.714Z,49.43
2022-10-19T06:12:26.921Z,49.58
2022-10-19T06:15:12.837Z,49.70
2022-10-19T06:17:58.899Z,49.73
2022-10-19T06:20:44.880Z,50.00
2022-10-19T06:23:31.747Z,50.14
2022-10-19T06:26:17.697Z,50.14
2022-10-19T06:29:04.593Z,50.30
2022-10-19T06:31:50.509Z,50.24
2022-10-19T06:34:36.778Z,50.34
2022-10-19T06:37:22.780Z,50.38
2022-10-19T06:40:09.814Z,50.58
2022-10-19T06:42:56.393Z,50.45
2022-10-19T06:45:42.518Z,50.56
2022-10-19T06:48:28.447Z,50.35
2022-10-19T06:51:14.224Z,50.88
2022-10-19T06:54:00.273Z,50.38
2022-10-19T06:56:46.408Z,50.58
2022-10-19T06:59:32.288Z,50.81
2022-10-19T07:02:18.235Z,50.83
2022-10-19T07:05:06.970Z,50.53
2022-10-19T07:07:53.050Z,51.38
2022-10-19T07:10:38.840Z,51.02
2022-10-19T07:13:25.571Z,50.75
2022-10-19T07:16:17.539Z,50.41
2022-10-19T07:19:06.951Z,50.51
2022-10-19T07:21:52.878Z,50.86
2022-10-19T07:24:39.025Z,50.74
2022-10-19T07:27:25.103Z,50.82
2022-10-19T07:30:11.159Z,51.02
2022-10-19T07:32:57.310Z,50.91
2022-10-19T07:35:43.237Z,51.23
2022-10-19T07:38:30.853Z,51.79
2022-10-19T07:41:19.304Z,51.25
2022-10-19T07:44:05.391Z,51.72
2022-10-19T07:46:51.727Z,51.53
2022-10-19T07:49:38.389Z,51.67
2022-10-19T07:52:24.526Z,51.37
2022-10-19T07:55:10.464Z,51.62
2022-10-19T07:57:56.303Z,52.41
2022-10-19T08:00:42.070Z,51.57
2022-10-19T08:06:34.129Z,51.45
2022-10-19T08:09:47.370Z,51.55
2022-10-19T08:12:26.009Z,51.09
2022-10-19T08:15:11.974Z,51.49
2022-10-19T08:17:58.686Z,50.94
2022-10-19T08:20:45.062Z,50.71
2022-10-19T08:23:31.237Z,50.55
2022-10-19T08:26:17.324Z,50.72
2022-10-19T08:29:05.056Z,50.84
2022-10-19T08:31:50.942Z,50.51
2022-10-19T08:34:37.115Z,50.70
2022-10-19T08:37:40.351Z,50.74
2022-10-19T08:40:30.833Z,50.64
2022-10-19T08:43:32.935Z,50.38
2022-10-19T08:46:24.878Z,50.26
2022-10-19T08:49:13.205Z,50.37
2022-10-19T08:52:02.210Z,50.21
2022-10-19T08:54:55.354Z,49.98
2022-10-19T08:57:59.247Z,50.01
2022-10-19T09:00:55.296Z,50.00
2022-10-19T09:04:17.739Z,49.56
2022-10-19T09:07:20.937Z,49.85
2022-10-19T09:10:16.908Z,49.82
2022-10-19T09:13:09.149Z,49.61
2022-10-19T09:15:55.945Z,49.88
2022-10-19T09:18:43.218Z,49.73
2022-10-19T09:21:43.282Z,49.80
2022-10-19T09:24:43.064Z,49.51
2022-10-19T09:27:35.775Z,49.38
2022-10-19T09:30:23.557Z,49.52
2022-10-19T09:33:16.306Z,49.49
2022-10-19T09:36:02.608Z,49.87
2022-10-19T09:38:49.203Z,49.32
2022-10-19T09:41:36.034Z,49.21
2022-10-19T09:44:23.443Z,49.50
2022-10-19T09:47:38.755Z,49.41
2022-10-19T09:50:27.296Z,49.40
2022-10-19T09:53:19.579Z,48.75
2022-10-19T09:56:07.837Z,49.00
2022-10-19T09:58:57.480Z,49.08
2022-10-19T10:01:43.821Z,48.75
2022-10-19T10:04:30.563Z,48.76
2022-10-19T10:07:18.197Z,48.69
2022-10-19T10:10:25.506Z,48.75
2022-10-19T10:13:20.512Z,48.84
2022-10-19T10:16:08.926Z,48.15
2022-10-19T10:19:06.934Z,48.32
2022-10-19T10:21:57.833Z,47.95
2022-10-19T10:24:52.956Z,47.99
2022-10-19T10:27:39.957Z,48.05
2022-10-19T10:30:27.256Z,47.86
2022-10-19T10:33:33.367Z,47.70
2022-10-19T10:36:28.577Z,47.49
2022-10-19T10:39:16.244Z,47.46
2022-10-19T10:42:08.222Z,47.36
2022-10-19T10:44:56.464Z,47.27
2022-10-19T10:47:48.354Z,46.58
2022-10-19T10:50:35.813Z,45.96
2022-10-19T10:53:37.195Z,44.98
2022-10-19T10:56:29.801Z,45.29
2022-10-19T10:59:28.687Z,44.98
2022-10-19T11:05:54.508Z,45.21
2022-10-19T11:08:46.586Z,44.35
2022-10-19T11:11:45.397Z,43.00
2022-10-19T11:15:18.385Z,43.98
2022-10-19T11:18:36.413Z,43.63
2022-10-19T11:21:41.552Z,42.15
2022-10-19T11:24:36.054Z,42.86
2022-10-19T11:27:47.863Z,42.03
2022-10-19T11:30:42.483Z,42.32
2022-10-19T11:33:50.858Z,42.24
2022-10-19T11:36:44.030Z,40.18
2022-10-19T11:39:35.890Z,41.07
2022-10-19T11:42:55.778Z,41.69
2022-10-19T11:45:44.693Z,41.35
2022-10-19T11:48:55.642Z,41.05
2022-10-19T11:51:59.574Z,40.66
2022-10-19T11:54:54.392Z,40.33
2022-10-19T11:57:54.017Z,40.98
2022-10-19T12:00:51.823Z,40.07
2022-10-19T12:03:53.007Z,40.59
2022-10-19T12:07:19.493Z,34.52
2022-10-19T12:10:33.629Z,40.44
2022-10-19T12:13:26.245Z,40.21
2022-10-19T12:16:13.552Z,39.90
2022-10-19T12:19:01.022Z,40.05
2022-10-19T12:21:47.882Z,39.78
2022-10-19T12:24:34.633Z,39.71
2022-10-19T12:27:36.726Z,39.15
2022-10-19T12:30:24.878Z,39.62
2022-10-19T12:33:24.001Z,39.42
2022-10-19T12:36:45.617Z,39.42
2022-10-19T12:39:43.077Z,38.72
2022-10-19T12:42:29.014Z,38.85
2022-10-19T12:45:34.045Z,38.63
2022-10-19T12:48:22.082Z,38.15
2022-10-19T12:51:12.203Z,38.47
2022-10-19T12:54:08.429Z,38.17
2022-10-19T12:56:56.194Z,38.11
2022-10-19T12:59:42.535Z,37.74
2022-10-19T13:05:23.536Z,37.14
2022-10-19T13:08:12.269Z,37.47
2022-10-19T13:11:15.500Z,37.46
2022-10-19T13:14:27.326Z,37.19
2022-10-19T13:17:36.581Z,37.26
2022-10-19T13:20:24.909Z,36.90
2022-10-19T13:23:11.082Z,36.65
2022-10-19T13:26:34.265Z,37.27
2022-10-19T13:29:28.934Z,35.39
2022-10-19T13:32:41.168Z,35.89
2022-10-19T13:35:34.647Z,35.15
2022-10-19T13:38:24.153Z,35.01
2022-10-19T13:41:27.991Z,34.57
2022-10-19T13:44:18.313Z,33.91
2022-10-19T13:50:44.200Z,34.05
2022-10-19T13:54:02.063Z,34.21
2022-10-19T13:56:59.032Z,33.60
2022-10-19T14:00:01.734Z,33.68
2022-10-19T14:03:20.737Z,33.70
2022-10-19T14:06:21.342Z,33.48
2022-10-19T14:09:29.498Z,33.24
2022-10-19T14:12:21.689Z,33.00
2022-10-19T14:15:29.768Z,33.55
2022-10-19T14:18:31.276Z,33.80
2022-10-19T14:21:32.266Z,33.27
2022-10-19T14:24:28.210Z,33.81
2022-10-19T14:27:19.899Z,33.86
2022-10-19T14:30:06.934Z,34.35
2022-10-19T14:32:56.812Z,34.11
2022-10-19T14:35:46.398Z,34.71
2022-10-19T14:38:35.302Z,34.35
2022-10-19T14:44:43.850Z,34.41
2022-10-19T14:47:30.599Z,34.75
2022-10-19T14:50:16.420Z,34.29
2022-10-19T14:53:20.556Z,34.51
2022-10-19T14:56:11.009Z,34.74
2022-10-19T14:59:00.972Z,34.79
2022-10-19T15:01:55.812Z,33.85
2022-10-19T15:04:42.659Z,35.03
2022-10-19T15:07:39.938Z,34.98
2022-10-19T15:10:43.363Z,35.14
2022-10-19T15:13:33.340Z,35.18
2022-10-19T15:16:43.983Z,35.30
2022-10-19T15:19:48.200Z,34.94
2022-10-19T15:22:34.358Z,35.18
2022-10-19T15:25:37.193Z,35.33
2022-10-19T15:28:40.699Z,35.48
2022-10-19T15:31:29.806Z,35.58
2022-10-19T15:34:24.284Z,35.68
2022-10-19T15:37:20.634Z,35.74
2022-10-19T15:40:26.095Z,35.89
2022-10-19T15:43:30.762Z,36.03
2022-10-19T15:46:28.595Z,36.23
2022-10-19T15:49:17.544Z,36.33
2022-10-19T15:52:17.907Z,36.38
2022-10-19T15:55:04.201Z,36.34
2022-10-19T15:57:58.566Z,36.62
2022-10-19T16:00:44.888Z,36.53
2022-10-19T16:03:30.785Z,36.56
2022-10-19T16:06:17.702Z,36.68
2022-10-19T16:09:04.572Z,36.73
2022-10-19T16:11:56.429Z,36.96
2022-10-19T16:14:42.653Z,36.83
2022-10-19T16:17:28.797Z,37.10
2022-10-19T16:20:15.465Z,37.17
2022-10-19T16:23:01.738Z,37.22
2022-10-19T16:25:47.718Z,37.04
2022-10-19T16:28:34.133Z,37.33
2022-10-19T16:31:20.554Z,37.34
2022-10-19T16:34:06.574Z,37.64
2022-10-19T16:36:52.654Z,37.71
2022-10-19T16:39:38.757Z,37.79
2022-10-19T16:42:29.649Z,37.65
2022-10-19T16:45:17.348Z,37.51
2022-10-19T16:48:03.409Z,37.99
2022-10-19T16:51:07.797Z,38.03
2022-10-19T16:53:57.231Z,38.13
2022-10-19T16:56:47.807Z,38.45
2022-10-19T16:59:33.812Z,38.35
2022-10-19T17:02:20.639Z,38.33
2022-10-19T17:05:06.728Z,38.20
2022-10-19T17:07:53.009Z,38.52
2022-10-19T17:10:38.793Z,38.59
2022-10-19T17:13:24.696Z,38.51
2022-10-19T17:16:11.653Z,38.74
2022-10-19T17:18:59.510Z,38.79
2022-10-19T17:21:45.648Z,38.67
2022-10-19T17:24:31.935Z,38.79
2022-10-19T17:27:18.224Z,39.05
2022-10-19T17:30:04.707Z,38.82
2022-10-19T17:32:50.971Z,38.94
2022-10-19T17:35:36.894Z,39.21
2022-10-19T17:38:22.940Z,39.16
2022-10-19T17:41:11.297Z,39.27
2022-10-19T17:43:58.369Z,39.35
2022-10-19T17:46:44.768Z,39.38
2022-10-19T17:49:31.009Z,39.47
2022-10-19T17:52:17.154Z,39.48
2022-10-19T17:55:18.720Z,39.36
2022-10-19T17:58:04.724Z,39.53
2022-10-19T18:00:57.743Z,39.70
2022-10-19T18:03:43.563Z,39.89
2022-10-19T18:06:31.826Z,39.96
2022-10-19T18:09:17.813Z,40.03
2022-10-19T18:12:04.901Z,40.08
2022-10-19T18:14:53.085Z,39.82
2022-10-19T18:17:39.296Z,39.90
2022-10-19T18:20:25.440Z,40.10
2022-10-19T18:23:11.383Z,40.04
2022-10-19T18:26:04.343Z,40.46
2022-10-19T18:28:52.553Z,40.55
2022-10-19T18:31:39.890Z,41.28
2022-10-19T18:34:26.913Z,40.99
2022-10-19T18:37:13.132Z,40.82
2022-10-19T18:39:58.814Z,40.79
2022-10-19T18:42:44.799Z,40.64
2022-10-19T18:45:31.059Z,42.06
2022-10-19T18:48:17.158Z,41.52
2022-10-19T18:51:06.693Z,42.25
2022-10-19T18:53:52.820Z,41.26
2022-10-19T18:56:39.308Z,41.65
2022-10-19T19:02:17.266Z,41.84
2022-10-19T19:05:08.968Z,41.85
2022-10-19T19:07:57.693Z,42.07
2022-10-19T19:10:46.312Z,42.00
2022-10-19T19:13:32.122Z,41.87
2022-10-19T19:16:18.226Z,41.99
2022-10-19T19:19:05.445Z,42.10
2022-10-19T19:21:51.825Z,42.03
2022-10-19T19:24:38.155Z,42.23
2022-10-19T19:27:27.257Z,42.39
2022-10-19T19:30:16.789Z,42.13
2022-10-19T19:33:02.619Z,42.22
2022-10-19T19:35:49.068Z,42.21
2022-10-19T19:38:36.488Z,42.45
2022-10-19T19:41:22.373Z,42.54
2022-10-19T19:44:08.603Z,42.52
2022-10-19T19:46:54.725Z,42.54
2022-10-19T19:49:40.606Z,42.50
2022-10-19T19:52:26.600Z,42.75
2022-10-19T19:55:12.412Z,42.75
2022-10-19T19:57:58.423Z,42.87
2022-10-19T20:00:44.583Z,43.04
2022-10-19T20:03:32.264Z,42.99
2022-10-19T20:06:22.264Z,43.02
2022-10-19T20:09:11.181Z,42.91
2022-10-19T20:11:57.474Z,43.11
2022-10-19T20:14:43.738Z,43.23
2022-10-19T20:17:30.006Z,43.10
2022-10-19T20:20:18.229Z,42.97
2022-10-19T20:23:04.611Z,43.14
2022-10-19T20:25:51.026Z,43.38
2022-10-19T20:28:37.318Z,43.06
2022-10-19T20:31:24.110Z,43.03
2022-10-19T20:34:11.305Z,42.99
2022-10-19T20:36:57.295Z,42.88
2022-10-19T20:39:43.254Z,43.11
2022-10-19T20:42:29.125Z,43.28
2022-10-19T20:45:15.183Z,43.31
2022-10-19T20:48:01.206Z,43.23
2022-10-19T20:50:47.187Z,43.20
2022-10-19T20:53:33.100Z,42.97
2022-10-19T20:56:23.909Z,43.28
2022-10-19T20:59:16.063Z,43.22
2022-10-19T21:02:02.071Z,43.44
2022-10-19T21:04:48.434Z,43.25
2022-10-19T21:07:34.226Z,43.94
2022-10-19T21:10:20.382Z,43.71
2022-10-19T21:13:06.166Z,43.59
2022-10-19T21:15:52.242Z,43.43
2022-10-19T21:18:38.443Z,43.48
2022-10-19T21:21:29.253Z,44.29
2022-10-19T21:24:21.468Z,43.94
2022-10-19T21:27:09.294Z,43.86
2022-10-19T21:29:55.415Z,43.69
2022-10-19T21:32:41.665Z,43.94
2022-10-19T21:35:27.563Z,43.70
2022-10-19T21:38:13.993Z,43.58
2022-10-19T21:41:01.625Z,43.71
2022-10-19T21:43:47.863Z,43.81
2022-10-19T21:46:34.029Z,43.89
2022-10-19T21:49:19.766Z,43.92
2022-10-19T21:52:05.702Z,43.86
2022-10-19T21:54:53.534Z,44.10
2022-10-19T21:57:39.385Z,43.88
2022-10-19T22:00:25.200Z,44.10
2022-10-19T22:03:11.276Z,44.25
2022-10-19T22:05:57.526Z,44.12
2022-10-19T22:08:46.891Z,44.32
2022-10-19T22:11:33.093Z,44.42
2022-10-19T22:14:19.168Z,44.37
2022-10-19T22:17:04.968Z,44.27
2022-10-19T22:19:50.823Z,44.86
2022-10-19T22:22:36.921Z,44.29
2022-10-19T22:25:23.258Z,44.52
2022-10-19T22:28:09.675Z,44.44
2022-10-19T22:30:56.981Z,44.62
2022-10-19T22:33:43.186Z,44.62
2022-10-19T22:36:29.643Z,44.65
2022-10-19T22:39:16.518Z,44.73
2022-10-19T22:42:02.919Z,44.81
2022-10-19T22:44:48.791Z,44.65
2022-10-19T22:47:35.183Z,44.74
2022-10-19T22:50:21.107Z,44.89
2022-10-19T22:53:06.957Z,44.89
2022-10-19T22:55:52.833Z,44.79
2022-10-19T22:58:39.133Z,44.92
2022-10-19T23:01:25.041Z,44.92
2022-10-19T23:04:10.987Z,45.08
2022-10-19T23:06:56.952Z,44.87
2022-10-19T23:09:42.759Z,45.13
2022-10-19T23:12:28.592Z,45.11
2022-10-19T23:15:16.243Z,45.18
2022-10-19T23:18:02.400Z,45.14
2022-10-19T23:21:02.538Z,45.34
2022-10-19T23:23:48.440Z,45.13
2022-10-19T23:26:34.366Z,45.45
2022-10-19T23:29:20.498Z,45.31
2022-10-19T23:32:06.606Z,45.44
2022-10-19T23:34:52.990Z,45.29
2022-10-19T23:37:39.322Z,45.42
2022-10-19T23:40:25.351Z,45.77
2022-10-19T23:43:11.908Z,45.56
2022-10-19T23:45:58.037Z,45.67
2022-10-19T23:48:44.199Z,45.67
2022-10-19T23:51:30.382Z,45.58
2022-10-19T23:54:16.293Z,45.41
2022-10-19T23:57:02.194Z,45.51
2022-10-19T23:59:48.300Z,45.78
